sensor_id;sensor_type;location;lat;lon;timestamp;pressure;altitude;pressure_sealevel;temperature;humidity
83631;BME280;73593;52.134;5.426;2023-12-14T00:01:38;101065.44;;;5.01;91.72
83631;BME280;73593;52.134;5.426;2023-12-14T00:04:08;101065.63;;;4.98;91.82
83631;BME280;73593;52.134;5.426;2023-12-14T00:06:35;101075.50;;;4.93;92.49
83631;BME280;73593;52.134;5.426;2023-12-14T00:09:01;101083.47;;;4.91;92.18
83631;BME280;73593;52.134;5.426;2023-12-14T00:11:35;101088.72;;;4.91;92.36
83631;BME280;73593;52.134;5.426;2023-12-14T00:14:06;101097.41;;;4.92;92.42
83631;BME280;73593;52.134;5.426;2023-12-14T00:16:40;101096.63;;;4.90;92.19
83631;BME280;73593;52.134;5.426;2023-12-14T00:19:07;101113.22;;;4.90;92.02
83631;BME280;73593;52.134;5.426;2023-12-14T00:21:34;101108.91;;;4.89;91.69
83631;BME280;73593;52.134;5.426;2023-12-14T00:24:00;101115.84;;;4.90;92.00
83631;BME280;73593;52.134;5.426;2023-12-14T00:26:27;101115.19;;;4.87;92.01
83631;BME280;73593;52.134;5.426;2023-12-14T00:28:53;101119.50;;;4.88;91.92
83631;BME280;73593;52.134;5.426;2023-12-14T00:31:27;101134.28;;;4.89;92.23
83631;BME280;73593;52.134;5.426;2023-12-14T00:33:54;101139.53;;;4.89;91.75
83631;BME280;73593;52.134;5.426;2023-12-14T00:36:20;101140.47;;;4.88;91.81
83631;BME280;73593;52.134;5.426;2023-12-14T00:38:49;101142.16;;;4.89;92.13
83631;BME280;73593;52.134;5.426;2023-12-14T00:41:16;101147.31;;;4.90;92.39
83631;BME280;73593;52.134;5.426;2023-12-14T00:43:45;101141.22;;;4.90;92.31
83631;BME280;73593;52.134;5.426;2023-12-14T00:46:14;101148.25;;;4.89;91.76
83631;BME280;73593;52.134;5.426;2023-12-14T00:48:41;101149.19;;;4.88;92.30
83631;BME280;73593;52.134;5.426;2023-12-14T00:51:08;101144.78;;;4.89;91.83
83631;BME280;73593;52.134;5.426;2023-12-14T00:53:37;101147.41;;;4.89;91.37
83631;BME280;73593;52.134;5.426;2023-12-14T00:56:04;101150.97;;;4.88;91.89
83631;BME280;73593;52.134;5.426;2023-12-14T00:58:33;101156.44;;;4.83;91.43
83631;BME280;73593;52.134;5.426;2023-12-14T01:01:00;101166.94;;;4.83;91.45
83631;BME280;73593;52.134;5.426;2023-12-14T01:03:29;101163.56;;;4.81;91.75
83631;BME280;73593;52.134;5.426;2023-12-14T01:05:58;101172.34;;;4.80;91.41
83631;BME280;73593;52.134;5.426;2023-12-14T01:08:25;101179.44;;;4.78;91.33
83631;BME280;73593;52.134;5.426;2023-12-14T01:10:52;101187.38;;;4.76;91.51
83631;BME280;73593;52.134;5.426;2023-12-14T01:13:18;101195.16;;;4.78;91.73
83631;BME280;73593;52.134;5.426;2023-12-14T01:15:47;101192.53;;;4.78;91.51
83631;BME280;73593;52.134;5.426;2023-12-14T01:18:14;101210.00;;;4.79;91.17
83631;BME280;73593;52.134;5.426;2023-12-14T01:20:41;101210.91;;;4.78;91.56
83631;BME280;73593;52.134;5.426;2023-12-14T01:23:17;101211.75;;;4.78;91.71
83631;BME280;73593;52.134;5.426;2023-12-14T01:25:44;101219.56;;;4.80;91.68
83631;BME280;73593;52.134;5.426;2023-12-14T01:28:13;101220.50;;;4.79;91.33
83631;BME280;73593;52.134;5.426;2023-12-14T01:30:42;101215.25;;;4.79;91.33
83631;BME280;73593;52.134;5.426;2023-12-14T01:33:14;101221.34;;;4.79;91.52
83631;BME280;73593;52.134;5.426;2023-12-14T01:35:41;101224.88;;;4.78;91.45
83631;BME280;73593;52.134;5.426;2023-12-14T01:38:12;101220.50;;;4.79;91.06
83631;BME280;73593;52.134;5.426;2023-12-14T01:40:39;101226.59;;;4.79;91.60
83631;BME280;73593;52.134;5.426;2023-12-14T01:43:09;101226.59;;;4.79;91.07
83631;BME280;73593;52.134;5.426;2023-12-14T01:45:38;101226.63;;;4.78;91.49
83631;BME280;73593;52.134;5.426;2023-12-14T01:48:05;101231.97;;;4.76;91.34
83631;BME280;73593;52.134;5.426;2023-12-14T01:50:37;101248.63;;;4.75;91.64
83631;BME280;73593;52.134;5.426;2023-12-14T01:53:03;101253.03;;;4.75;91.37
83631;BME280;73593;52.134;5.426;2023-12-14T01:55:34;101267.84;;;4.76;91.58
83631;BME280;73593;52.134;5.426;2023-12-14T01:58:01;101258.28;;;4.75;91.45
83631;BME280;73593;52.134;5.426;2023-12-14T02:00:36;101270.63;;;4.73;91.04
83631;BME280;73593;52.134;5.426;2023-12-14T02:03:06;101273.25;;;4.73;91.19
83631;BME280;73593;52.134;5.426;2023-12-14T02:05:37;101273.25;;;4.73;91.05
83631;BME280;73593;52.134;5.426;2023-12-14T02:08:04;101280.25;;;4.72;91.35
83631;BME280;73593;52.134;5.426;2023-12-14T02:10:31;101288.13;;;4.72;91.24
83631;BME280;73593;52.134;5.426;2023-12-14T02:13:01;101295.97;;;4.72;91.42
83631;BME280;73593;52.134;5.426;2023-12-14T02:15:28;101296.91;;;4.71;90.80
83631;BME280;73593;52.134;5.426;2023-12-14T02:17:56;101298.59;;;4.72;91.05
83631;BME280;73593;52.134;5.426;2023-12-14T02:20:25;101302.16;;;4.71;91.16
83631;BME280;73593;52.134;5.426;2023-12-14T02:22:57;101310.94;;;4.70;91.23
83631;BME280;73593;52.134;5.426;2023-12-14T02:25:44;101317.03;;;4.71;90.85
83631;BME280;73593;52.134;5.426;2023-12-14T02:28:16;101321.53;;;4.69;90.98
83631;BME280;73593;52.134;5.426;2023-12-14T02:30:46;101327.53;;;4.71;91.06
83631;BME280;73593;52.134;5.426;2023-12-14T02:33:12;101331.09;;;4.70;90.88
83631;BME280;73593;52.134;5.426;2023-12-14T02:35:40;101338.09;;;4.69;90.85
83631;BME280;73593;52.134;5.426;2023-12-14T02:38:07;101345.03;;;4.70;91.03
83631;BME280;73593;52.134;5.426;2023-12-14T02:40:33;101347.66;;;4.70;90.80
83631;BME280;73593;52.134;5.426;2023-12-14T02:43:00;101348.59;;;4.69;91.11
83631;BME280;73593;52.134;5.426;2023-12-14T02:45:26;101352.91;;;4.70;90.97
83631;BME280;73593;52.134;5.426;2023-12-14T02:47:53;101358.25;;;4.69;90.78
83631;BME280;73593;52.134;5.426;2023-12-14T02:50:20;101360.00;;;4.68;90.65
83631;BME280;73593;52.134;5.426;2023-12-14T02:52:47;101361.78;;;4.68;90.61
83631;BME280;73593;52.134;5.426;2023-12-14T02:55:14;101362.63;;;4.68;90.80
83631;BME280;73593;52.134;5.426;2023-12-14T02:57:40;101370.59;;;4.67;90.59
83631;BME280;73593;52.134;5.426;2023-12-14T03:00:08;101367.16;;;4.65;90.20
83631;BME280;73593;52.134;5.426;2023-12-14T03:02:37;101370.63;;;4.65;90.58
83631;BME280;73593;52.134;5.426;2023-12-14T03:05:04;101375.88;;;4.65;90.69
83631;BME280;73593;52.134;5.426;2023-12-14T03:07:36;101374.94;;;4.66;90.56
83631;BME280;73593;52.134;5.426;2023-12-14T03:10:03;101376.81;;;4.64;90.31
83631;BME280;73593;52.134;5.426;2023-12-14T03:12:37;101378.50;;;4.65;90.46
83631;BME280;73593;52.134;5.426;2023-12-14T03:15:04;101383.75;;;4.65;90.71
83631;BME280;73593;52.134;5.426;2023-12-14T03:17:31;101385.53;;;4.65;90.51
83631;BME280;73593;52.134;5.426;2023-12-14T03:19:57;101383.81;;;4.64;91.21
83631;BME280;73593;52.134;5.426;2023-12-14T03:22:26;101384.75;;;4.63;90.46
83631;BME280;73593;52.134;5.426;2023-12-14T03:24:55;101391.69;;;4.64;90.68
83631;BME280;73593;52.134;5.426;2023-12-14T03:27:24;101386.53;;;4.62;90.61
83631;BME280;73593;52.134;5.426;2023-12-14T03:29:53;101397.88;;;4.63;90.56
83631;BME280;73593;52.134;5.426;2023-12-14T03:32:20;101397.88;;;4.63;90.80
83631;BME280;73593;52.134;5.426;2023-12-14T03:34:46;101390.00;;;4.63;90.83
83631;BME280;73593;52.134;5.426;2023-12-14T03:37:15;101381.38;;;4.61;90.36
83631;BME280;73593;52.134;5.426;2023-12-14T03:39:44;101382.22;;;4.61;90.63
83631;BME280;73593;52.134;5.426;2023-12-14T03:42:13;101382.22;;;4.61;90.72
83631;BME280;73593;52.134;5.426;2023-12-14T03:44:42;101389.22;;;4.61;90.57
83631;BME280;73593;52.134;5.426;2023-12-14T03:47:11;101384.00;;;4.61;91.10
83631;BME280;73593;52.134;5.426;2023-12-14T03:49:38;101389.22;;;4.61;90.72
83631;BME280;73593;52.134;5.426;2023-12-14T03:52:10;101388.44;;;4.58;90.25
83631;BME280;73593;52.134;5.426;2023-12-14T03:54:37;101391.91;;;4.59;90.84
83631;BME280;73593;52.134;5.426;2023-12-14T03:57:04;101404.09;;;4.60;90.66
83631;BME280;73593;52.134;5.426;2023-12-14T03:59:30;101395.31;;;4.61;90.65
83631;BME280;73593;52.134;5.426;2023-12-14T04:01:59;101400.50;;;4.63;91.05
83631;BME280;73593;52.134;5.426;2023-12-14T04:04:26;101399.63;;;4.62;91.05
83631;BME280;73593;52.134;5.426;2023-12-14T04:06:55;101404.97;;;4.61;91.14
83631;BME280;73593;52.134;5.426;2023-12-14T04:09:22;101405.88;;;4.59;90.56
83631;BME280;73593;52.134;5.426;2023-12-14T04:11:49;101419.91;;;4.58;90.40
83631;BME280;73593;52.134;5.426;2023-12-14T04:14:20;101426.00;;;4.59;90.69
83631;BME280;73593;52.134;5.426;2023-12-14T04:16:49;101433.84;;;4.59;90.84
83631;BME280;73593;52.134;5.426;2023-12-14T04:19:16;101432.25;;;4.56;90.37
83631;BME280;73593;52.134;5.426;2023-12-14T04:21:43;101444.59;;;4.54;90.62
83631;BME280;73593;52.134;5.426;2023-12-14T04:24:10;101447.19;;;4.54;90.20
83631;BME280;73593;52.134;5.426;2023-12-14T04:26:39;101451.66;;;4.52;90.43
83631;BME280;73593;52.134;5.426;2023-12-14T04:29:06;101453.34;;;4.53;90.26
83631;BME280;73593;52.134;5.426;2023-12-14T04:31:35;101461.22;;;4.53;90.27
83631;BME280;73593;52.134;5.426;2023-12-14T04:34:02;101449.94;;;4.51;90.64
83631;BME280;73593;52.134;5.426;2023-12-14T04:36:28;101462.97;;;4.53;90.53
83631;BME280;73593;52.134;5.426;2023-12-14T04:38:55;101464.75;;;4.52;90.49
83631;BME280;73593;52.134;5.426;2023-12-14T04:41:24;101472.69;;;4.51;90.07
83631;BME280;73593;52.134;5.426;2023-12-14T04:43:53;101481.56;;;4.48;90.49
83631;BME280;73593;52.134;5.426;2023-12-14T04:46:20;101485.06;;;4.47;90.03
83631;BME280;73593;52.134;5.426;2023-12-14T04:48:47;101482.47;;;4.47;90.20
83631;BME280;73593;52.134;5.426;2023-12-14T04:51:16;101498.19;;;4.47;90.43
83631;BME280;73593;52.134;5.426;2023-12-14T04:53:45;101495.56;;;4.47;90.79
83631;BME280;73593;52.134;5.426;2023-12-14T04:56:14;101506.06;;;4.47;90.32
83631;BME280;73593;52.134;5.426;2023-12-14T04:58:42;101513.16;;;4.45;90.39
83631;BME280;73593;52.134;5.426;2023-12-14T05:01:09;101523.63;;;4.45;90.11
83631;BME280;73593;52.134;5.426;2023-12-14T05:03:36;101527.09;;;4.46;89.95
83631;BME280;73593;52.134;5.426;2023-12-14T05:06:06;101528.88;;;4.45;89.89
83631;BME280;73593;52.134;5.426;2023-12-14T05:08:33;101536.81;;;4.44;90.06
83631;BME280;73593;52.134;5.426;2023-12-14T05:11:00;101537.75;;;4.43;89.83
83631;BME280;73593;52.134;5.426;2023-12-14T05:13:27;101539.50;;;4.42;90.14
83631;BME280;73593;52.134;5.426;2023-12-14T05:15:53;101545.66;;;4.41;89.96
83631;BME280;73593;52.134;5.426;2023-12-14T05:18:20;101555.34;;;4.39;89.88
83631;BME280;73593;52.134;5.426;2023-12-14T05:20:50;101571.09;;;4.39;89.81
83631;BME280;73593;52.134;5.426;2023-12-14T05:23:17;101572.84;;;4.39;89.92
83631;BME280;73593;52.134;5.426;2023-12-14T05:26:15;101578.09;;;4.39;89.74
83631;BME280;73593;52.134;5.426;2023-12-14T05:28:42;101589.38;;;4.41;89.87
83631;BME280;73593;52.134;5.426;2023-12-14T05:31:09;101585.13;;;4.38;89.90
83631;BME280;73593;52.134;5.426;2023-12-14T05:33:41;101587.75;;;4.38;89.68
83631;BME280;73593;52.134;5.426;2023-12-14T05:36:08;101595.59;;;4.38;89.92
83631;BME280;73593;52.134;5.426;2023-12-14T05:38:40;101603.47;;;4.38;89.88
83631;BME280;73593;52.134;5.426;2023-12-14T05:41:10;101593.84;;;4.39;90.17
83631;BME280;73593;52.134;5.426;2023-12-14T05:43:39;101596.44;;;4.39;90.25
83631;BME280;73593;52.134;5.426;2023-12-14T05:46:06;101607.72;;;4.41;90.00
83631;BME280;73593;52.134;5.426;2023-12-14T05:48:32;101609.56;;;4.39;90.35
83631;BME280;73593;52.134;5.426;2023-12-14T05:51:00;101604.31;;;4.39;90.46
83631;BME280;73593;52.134;5.426;2023-12-14T05:53:26;101611.34;;;4.38;90.34
83631;BME280;73593;52.134;5.426;2023-12-14T05:55:53;101612.25;;;4.37;89.92
83631;BME280;73593;52.134;5.426;2023-12-14T05:58:20;101622.78;;;4.36;90.23
83631;BME280;73593;52.134;5.426;2023-12-14T06:00:47;101621.94;;;4.35;90.12
83631;BME280;73593;52.134;5.426;2023-12-14T06:03:13;101625.47;;;4.34;90.02
83631;BME280;73593;52.134;5.426;2023-12-14T06:05:40;101635.97;;;4.34;90.45
83631;BME280;73593;52.134;5.426;2023-12-14T06:08:07;101643.91;;;4.32;89.86
83631;BME280;73593;52.134;5.426;2023-12-14T06:10:34;101649.22;;;4.31;89.97
83631;BME280;73593;52.134;5.426;2023-12-14T06:13:01;101651.09;;;4.27;89.41
83631;BME280;73593;52.134;5.426;2023-12-14T06:15:30;101651.22;;;4.24;89.41
83631;BME280;73593;52.134;5.426;2023-12-14T06:17:57;101648.66;;;4.23;89.32
83631;BME280;73593;52.134;5.426;2023-12-14T06:20:23;101648.78;;;4.20;88.95
83631;BME280;73593;52.134;5.426;2023-12-14T06:22:50;101654.97;;;4.19;88.46
83631;BME280;73593;52.134;5.426;2023-12-14T06:25:17;101662.00;;;4.17;88.61
83631;BME280;73593;52.134;5.426;2023-12-14T06:27:46;101667.25;;;4.17;88.87
83631;BME280;73593;52.134;5.426;2023-12-14T06:30:12;101675.19;;;4.15;88.60
83631;BME280;73593;52.134;5.426;2023-12-14T06:32:39;101679.50;;;4.16;89.05
83631;BME280;73593;52.134;5.426;2023-12-14T06:35:06;101693.59;;;4.14;88.54
83631;BME280;73593;52.134;5.426;2023-12-14T06:37:33;101701.53;;;4.12;88.71
83631;BME280;73593;52.134;5.426;2023-12-14T06:40:02;101702.41;;;4.11;88.83
83631;BME280;73593;52.134;5.426;2023-12-14T06:42:29;101711.25;;;4.09;88.56
83631;BME280;73593;52.134;5.426;2023-12-14T06:44:56;101714.78;;;4.08;88.61
83631;BME280;73593;52.134;5.426;2023-12-14T06:47:25;101718.34;;;4.07;88.38
83631;BME280;73593;52.134;5.426;2023-12-14T06:49:52;101724.50;;;4.06;88.74
83631;BME280;73593;52.134;5.426;2023-12-14T06:52:19;101727.16;;;4.04;88.39
83631;BME280;73593;52.134;5.426;2023-12-14T06:54:48;101732.53;;;4.01;88.36
83631;BME280;73593;52.134;5.426;2023-12-14T06:57:17;101728.22;;;4.00;88.57
83631;BME280;73593;52.134;5.426;2023-12-14T06:59:43;101736.94;;;3.99;87.79
83631;BME280;73593;52.134;5.426;2023-12-14T07:02:10;101737.88;;;3.98;88.18
83631;BME280;73593;52.134;5.426;2023-12-14T07:04:36;101743.19;;;3.96;87.81
83631;BME280;73593;52.134;5.426;2023-12-14T07:07:03;101748.47;;;3.95;87.91
83631;BME280;73593;52.134;5.426;2023-12-14T07:09:30;101763.38;;;3.93;87.80
83631;BME280;73593;52.134;5.426;2023-12-14T07:11:59;101768.69;;;3.91;87.52
83631;BME280;73593;52.134;5.426;2023-12-14T07:14:29;101771.38;;;3.90;87.40
83631;BME280;73593;52.134;5.426;2023-12-14T07:16:56;101778.47;;;3.86;87.50
83631;BME280;73593;52.134;5.426;2023-12-14T07:19:22;101782.03;;;3.85;87.79
83631;BME280;73593;52.134;5.426;2023-12-14T07:21:51;101789.09;;;3.83;87.74
83631;BME280;73593;52.134;5.426;2023-12-14T07:24:20;101790.84;;;3.83;87.68
83631;BME280;73593;52.134;5.426;2023-12-14T07:26:47;101791.78;;;3.82;87.36
83631;BME280;73593;52.134;5.426;2023-12-14T07:29:16;101789.16;;;3.82;87.60
83631;BME280;73593;52.134;5.426;2023-12-14T07:31:42;101794.44;;;3.80;87.61
83631;BME280;73593;52.134;5.426;2023-12-14T07:34:09;101798.81;;;3.80;87.54
83631;BME280;73593;52.134;5.426;2023-12-14T07:36:38;101800.66;;;3.77;87.42
83631;BME280;73593;52.134;5.426;2023-12-14T07:39:04;101800.66;;;3.77;87.65
83631;BME280;73593;52.134;5.426;2023-12-14T07:41:32;101802.41;;;3.77;87.22
83631;BME280;73593;52.134;5.426;2023-12-14T07:44:01;101810.28;;;3.77;87.22
83631;BME280;73593;52.134;5.426;2023-12-14T07:46:32;101814.59;;;3.78;87.24
83631;BME280;73593;52.134;5.426;2023-12-14T07:48:58;101819.91;;;3.76;86.98
83631;BME280;73593;52.134;5.426;2023-12-14T07:51:26;101825.13;;;3.76;87.34
83631;BME280;73593;52.134;5.426;2023-12-14T07:53:54;101825.97;;;3.77;87.42
83631;BME280;73593;52.134;5.426;2023-12-14T07:56:25;101827.69;;;3.78;87.20
83631;BME280;73593;52.134;5.426;2023-12-14T07:58:54;101832.94;;;3.78;87.90
83631;BME280;73593;52.134;5.426;2023-12-14T08:01:23;101829.38;;;3.79;87.21
83631;BME280;73593;52.134;5.426;2023-12-14T08:03:49;101829.38;;;3.79;88.09
83631;BME280;73593;52.134;5.426;2023-12-14T08:06:16;101828.47;;;3.80;87.79
83631;BME280;73593;52.134;5.426;2023-12-14T08:08:43;101842.38;;;3.82;87.63
83631;BME280;73593;52.134;5.426;2023-12-14T08:11:12;101842.31;;;3.84;87.83
83631;BME280;73593;52.134;5.426;2023-12-14T08:13:39;101836.31;;;3.82;87.80
83631;BME280;73593;52.134;5.426;2023-12-14T08:16:10;101848.47;;;3.83;87.72
83631;BME280;73593;52.134;5.426;2023-12-14T08:18:40;101847.56;;;3.84;87.93
83631;BME280;73593;52.134;5.426;2023-12-14T08:21:08;101854.44;;;3.86;87.77
83631;BME280;73593;52.134;5.426;2023-12-14T08:23:38;101856.28;;;3.84;87.40
83631;BME280;73593;52.134;5.426;2023-12-14T08:26:07;101869.31;;;3.86;87.44
83631;BME280;73593;52.134;5.426;2023-12-14T08:28:36;101879.78;;;3.86;87.48
83631;BME280;73593;52.134;5.426;2023-12-14T08:31:03;101878.00;;;3.86;86.98
83631;BME280;73593;52.134;5.426;2023-12-14T08:33:33;101878.84;;;3.88;87.63
83631;BME280;73593;52.134;5.426;2023-12-14T08:35:59;101875.31;;;3.89;87.44
83631;BME280;73593;52.134;5.426;2023-12-14T08:38:26;101881.41;;;3.90;87.51
83631;BME280;73593;52.134;5.426;2023-12-14T08:40:58;101878.72;;;3.91;87.59
83631;BME280;73593;52.134;5.426;2023-12-14T08:43:28;101891.81;;;3.91;87.20
83631;BME280;73593;52.134;5.426;2023-12-14T08:46:02;101890.09;;;3.90;86.66
83631;BME280;73593;52.134;5.426;2023-12-14T08:48:32;101894.44;;;3.91;87.12
83631;BME280;73593;52.134;5.426;2023-12-14T08:50:58;101892.56;;;3.95;87.11
83631;BME280;73593;52.134;5.426;2023-12-14T08:53:27;101903.03;;;3.95;87.31
83631;BME280;73593;52.134;5.426;2023-12-14T08:55:56;101913.47;;;3.96;87.01
83631;BME280;73593;52.134;5.426;2023-12-14T08:58:22;101923.88;;;3.98;87.00
83631;BME280;73593;52.134;5.426;2023-12-14T09:00:49;101918.69;;;3.96;86.52
83631;BME280;73593;52.134;5.426;2023-12-14T09:03:19;101915.09;;;3.99;86.88
83631;BME280;73593;52.134;5.426;2023-12-14T09:05:47;101930.78;;;4.00;86.96
83631;BME280;73593;52.134;5.426;2023-12-14T09:08:16;101936.88;;;4.01;86.75
83631;BME280;73593;52.134;5.426;2023-12-14T09:10:45;101933.34;;;4.02;86.79
83631;BME280;73593;52.134;5.426;2023-12-14T09:13:17;101935.06;;;4.03;86.82
83631;BME280;73593;52.134;5.426;2023-12-14T09:15:43;101934.97;;;4.06;87.01
83631;BME280;73593;52.134;5.426;2023-12-14T09:18:10;101941.06;;;4.07;86.70
83631;BME280;73593;52.134;5.426;2023-12-14T09:20:37;101954.09;;;4.08;86.48
83631;BME280;73593;52.134;5.426;2023-12-14T09:23:04;101949.75;;;4.07;86.73
83631;BME280;73593;52.134;5.426;2023-12-14T09:25:30;101952.31;;;4.09;87.09
83631;BME280;73593;52.134;5.426;2023-12-14T09:27:59;101967.13;;;4.10;86.50
83631;BME280;73593;52.134;5.426;2023-12-14T09:30:28;101957.50;;;4.10;86.84
83631;BME280;73593;52.134;5.426;2023-12-14T09:32:55;101960.94;;;4.12;86.45
83631;BME280;73593;52.134;5.426;2023-12-14T09:35:23;101965.28;;;4.13;86.17
83631;BME280;73593;52.134;5.426;2023-12-14T09:37:50;101976.59;;;4.14;85.75
83631;BME280;73593;52.134;5.426;2023-12-14T09:40:16;101976.53;;;4.15;86.30
83631;BME280;73593;52.134;5.426;2023-12-14T09:42:45;101986.94;;;4.18;86.53
83631;BME280;73593;52.134;5.426;2023-12-14T09:45:11;101985.03;;;4.22;86.63
83631;BME280;73593;52.134;5.426;2023-12-14T09:47:38;101985.84;;;4.24;86.58
83631;BME280;73593;52.134;5.426;2023-12-14T09:50:06;101992.75;;;4.26;86.22
83631;BME280;73593;52.134;5.426;2023-12-14T09:52:33;101995.25;;;4.29;86.79
83631;BME280;73593;52.134;5.426;2023-12-14T09:55:00;102007.41;;;4.32;86.88
83631;BME280;73593;52.134;5.426;2023-12-14T09:57:27;102012.56;;;4.34;86.39
83631;BME280;73593;52.134;5.426;2023-12-14T09:59:54;102028.22;;;4.37;86.31
83631;BME280;73593;52.134;5.426;2023-12-14T10:02:27;102023.81;;;4.37;85.78
83631;BME280;73593;52.134;5.426;2023-12-14T10:04:54;102034.31;;;4.37;86.01
83631;BME280;73593;52.134;5.426;2023-12-14T10:07:22;102037.72;;;4.39;85.50
83631;BME280;73593;52.134;5.426;2023-12-14T10:09:49;102046.38;;;4.41;85.04
83631;BME280;73593;52.134;5.426;2023-12-14T10:12:16;102051.53;;;4.44;85.17
83631;BME280;73593;52.134;5.426;2023-12-14T10:14:43;102052.25;;;4.48;85.42
83631;BME280;73593;52.134;5.426;2023-12-14T10:17:18;102038.25;;;4.49;85.13
83631;BME280;73593;52.134;5.426;2023-12-14T10:19:50;102038.94;;;4.54;85.17
83631;BME280;73593;52.134;5.426;2023-12-14T10:22:17;102036.06;;;4.60;85.41
83631;BME280;73593;52.134;5.426;2023-12-14T10:24:46;102042.84;;;4.67;85.65
83631;BME280;73593;52.134;5.426;2023-12-14T10:27:14;102044.31;;;4.74;85.63
83631;BME280;73593;52.134;5.426;2023-12-14T10:29:41;102038.84;;;4.80;85.81
83631;BME280;73593;52.134;5.426;2023-12-14T10:32:11;102042.03;;;4.89;85.50
83631;BME280;73593;52.134;5.426;2023-12-14T10:34:38;102044.53;;;4.92;85.54
83631;BME280;73593;52.134;5.426;2023-12-14T10:37:06;102046.19;;;4.94;85.55
83631;BME280;73593;52.134;5.426;2023-12-14T10:39:37;102050.41;;;4.98;85.36
83631;BME280;73593;52.134;5.426;2023-12-14T10:42:04;102048.47;;;5.03;85.57
83631;BME280;73593;52.134;5.426;2023-12-14T10:44:45;102047.50;;;5.06;85.35
83631;BME280;73593;52.134;5.426;2023-12-14T10:47:32;102050.97;;;5.06;85.07
83631;BME280;73593;52.134;5.426;2023-12-14T10:50:00;102054.38;;;5.08;85.24
83631;BME280;73593;52.134;5.426;2023-12-14T10:52:28;102046.41;;;5.11;85.50
83631;BME280;73593;52.134;5.426;2023-12-14T10:55:00;102053.34;;;5.12;85.36
83631;BME280;73593;52.134;5.426;2023-12-14T10:57:31;102048.84;;;5.16;85.05
83631;BME280;73593;52.134;5.426;2023-12-14T11:00:07;102052.34;;;5.17;84.39
83631;BME280;73593;52.134;5.426;2023-12-14T11:02:40;102056.66;;;5.18;84.52
83631;BME280;73593;52.134;5.426;2023-12-14T11:05:11;102061.91;;;5.18;84.59
83631;BME280;73593;52.134;5.426;2023-12-14T11:10:27;102066.41;;;5.14;84.25
83631;BME280;73593;52.134;5.426;2023-12-14T11:13:02;102074.41;;;5.11;84.01
83631;BME280;73593;52.134;5.426;2023-12-14T11:15:29;102075.34;;;5.10;84.40
83631;BME280;73593;52.134;5.426;2023-12-14T11:23:14;102085.03;;;5.08;84.12
83631;BME280;73593;52.134;5.426;2023-12-14T11:25:48;102086.72;;;5.09;83.96
83631;BME280;73593;52.134;5.426;2023-12-14T11:28:23;102089.34;;;5.09;84.11
83631;BME280;73593;52.134;5.426;2023-12-14T11:30:54;102091.03;;;5.11;84.00
83631;BME280;73593;52.134;5.426;2023-12-14T11:33:23;102093.50;;;5.15;84.21
83631;BME280;73593;52.134;5.426;2023-12-14T11:35:55;102095.19;;;5.17;83.95
83631;BME280;73593;52.134;5.426;2023-12-14T11:38:23;102105.63;;;5.19;83.81
83631;BME280;73593;52.134;5.426;2023-12-14T11:40:51;102097.69;;;5.20;84.08
83631;BME280;73593;52.134;5.426;2023-12-14T11:43:18;102096.66;;;5.24;83.56
83631;BME280;73593;52.134;5.426;2023-12-14T11:45:50;102094.03;;;5.24;82.54
83631;BME280;73593;52.134;5.426;2023-12-14T11:48:18;102096.53;;;5.27;83.28
83631;BME280;73593;52.134;5.426;2023-12-14T11:50:49;102094.66;;;5.31;83.55
83631;BME280;73593;52.134;5.426;2023-12-14T11:53:16;102095.41;;;5.34;83.64
83631;BME280;73593;52.134;5.426;2023-12-14T11:55:44;102098.69;;;5.39;84.06
83631;BME280;73593;52.134;5.426;2023-12-14T11:58:15;102094.34;;;5.38;83.00
83631;BME280;73593;52.134;5.426;2023-12-14T12:00:42;102102.41;;;5.34;82.61
83631;BME280;73593;52.134;5.426;2023-12-14T12:03:18;102104.00;;;5.38;82.25
83631;BME280;73593;52.134;5.426;2023-12-14T12:05:48;102100.28;;;5.44;82.65
83631;BME280;73593;52.134;5.426;2023-12-14T12:08:29;102108.78;;;5.50;82.82
83631;BME280;73593;52.134;5.426;2023-12-14T12:10:56;102111.28;;;5.53;83.01
83631;BME280;73593;52.134;5.426;2023-12-14T12:13:23;102116.34;;;5.58;83.04
83631;BME280;73593;52.134;5.426;2023-12-14T12:15:50;102115.25;;;5.63;83.39
83631;BME280;73593;52.134;5.426;2023-12-14T12:18:19;102113.63;;;5.61;82.03
83631;BME280;73593;52.134;5.426;2023-12-14T12:20:48;102117.25;;;5.57;82.34
83631;BME280;73593;52.134;5.426;2023-12-14T12:23:19;102124.34;;;5.55;81.99
83631;BME280;73593;52.134;5.426;2023-12-14T12:25:45;102122.69;;;5.52;81.15
83631;BME280;73593;52.134;5.426;2023-12-14T12:28:14;102121.59;;;5.58;82.06
83631;BME280;73593;52.134;5.426;2023-12-14T12:30:41;102117.34;;;5.55;81.40
83631;BME280;73593;52.134;5.426;2023-12-14T12:33:11;102125.44;;;5.49;81.73
83631;BME280;73593;52.134;5.426;2023-12-14T12:35:41;102127.09;;;5.52;82.54
83631;BME280;73593;52.134;5.426;2023-12-14T12:38:07;102128.34;;;5.65;82.02
83631;BME280;73593;52.134;5.426;2023-12-14T12:40:36;102135.16;;;5.69;81.20
83631;BME280;73593;52.134;5.426;2023-12-14T12:43:05;102127.22;;;5.71;81.96
83631;BME280;73593;52.134;5.426;2023-12-14T12:45:32;102139.16;;;5.79;81.59
83631;BME280;73593;52.134;5.426;2023-12-14T12:48:01;102142.50;;;5.83;82.13
83631;BME280;73593;52.134;5.426;2023-12-14T12:50:35;102141.59;;;5.84;81.92
83631;BME280;73593;52.134;5.426;2023-12-14T12:53:02;102135.50;;;5.83;80.92
83631;BME280;73593;52.134;5.426;2023-12-14T12:55:29;102136.97;;;5.90;81.67
83631;BME280;73593;52.134;5.426;2023-12-14T12:57:55;102135.81;;;5.98;81.56
83631;BME280;73593;52.134;5.426;2023-12-14T13:00:25;102136.34;;;6.06;81.57
83631;BME280;73593;52.134;5.426;2023-12-14T13:02:51;102130.13;;;6.08;81.47
83631;BME280;73593;52.134;5.426;2023-12-14T13:05:18;102135.19;;;6.13;81.01
83631;BME280;73593;52.134;5.426;2023-12-14T13:07:46;102140.19;;;6.19;81.51
83631;BME280;73593;52.134;5.426;2023-12-14T13:10:13;102136.78;;;6.17;81.06
83631;BME280;73593;52.134;5.426;2023-12-14T13:13:01;102137.44;;;6.00;80.88
83631;BME280;73593;52.134;5.426;2023-12-14T13:15:27;102143.56;;;6.01;81.12